Time;durP1;ratioP1;P1;durP2;ratioP2;P2;SDS_P1;SDS_P2;PMS_P1;PMS_P2;Temp;Humidity;BMP_temperature;BMP_pressure;BME280_temperature;BME280_humidity;BME280_pressure;Samples;Min_cycle;Max_cycle;Signal;HPM_P1;HPM_P2
2023/04/16 00:01:41;;;;;;;10.87;8.53;;;;;;;;;;5012444;28;20180;-74
2023/04/16 00:04:07;;;;;;;11.57;9.17;;;;;;;;;;5007299;28;20222;-75
2023/04/16 00:06:33;;;;;;;9.97;8.23;;;;;;;;;;5011019;28;20187;-75
2023/04/16 00:08:59;;;;;;;12.10;8.80;;;;;;;;;;5010143;28;20542;-75
2023/04/16 00:11:25;;;;;;;12.27;9.53;;;;;;;;;;5018031;28;20198;-75
2023/04/16 00:13:51;;;;;;;10.13;8.73;;;;;;;;;;5015961;28;20274;-75
2023/04/16 00:16:18;;;;;;;11.20;9.23;;;;;;;;;;5030329;28;20202;-74
2023/04/16 00:18:44;;;;;;;10.07;8.97;;;;;;;;;;5022559;28;20206;-74
2023/04/16 00:21:10;;;;;;;11.27;10.07;;;;;;;;;;5033278;28;20527;-75
2023/04/16 00:23:36;;;;;;;10.63;9.00;;;;;;;;;;4984058;28;20332;-75
2023/04/16 00:26:03;;;;;;;10.43;8.90;;;;;;;;;;5036127;28;20204;-75
2023/04/16 00:28:29;;;;;;;10.50;9.13;;;;;;;;;;5037508;28;20573;-75
2023/04/16 00:30:55;;;;;;;10.77;9.10;;;;;;;;;;5036669;28;20655;-75
2023/04/16 00:33:21;;;;;;;11.73;9.70;;;;;;;;;;5022353;28;20187;-73
2023/04/16 00:35:48;;;;;;;11.50;9.23;;;;;;;;;;5017835;28;20207;-75
2023/04/16 00:38:14;;;;;;;10.90;9.40;;;;;;;;;;5005360;28;20624;-75
2023/04/16 00:40:40;;;;;;;12.50;11.07;;;;;;;;;;5016381;28;20338;-75
2023/04/16 00:43:07;;;;;;;10.77;9.40;;;;;;;;;;5017366;28;20631;-75
2023/04/16 00:45:33;;;;;;;11.20;9.83;;;;;;;;;;5016408;28;20171;-75
2023/04/16 00:48:00;;;;;;;10.07;9.00;;;;;;;;;;5017657;28;20205;-75
2023/04/16 00:50:26;;;;;;;12.17;9.67;;;;;;;;;;5017477;28;20183;-75
2023/04/16 00:52:52;;;;;;;10.87;9.60;;;;;;;;;;5016037;28;20183;-75
2023/04/16 00:55:20;;;;;;;10.60;9.50;;;;;;;;;;5017610;28;20298;-74
2023/04/16 00:57:46;;;;;;;12.53;10.23;;;;;;;;;;5017849;28;20195;-75
2023/04/16 01:00:12;;;;;;;11.50;9.57;;;;;;;;;;5017288;28;20179;-75
2023/04/16 01:02:40;;;;;;;13.10;10.23;;;;;;;;;;5015990;28;20199;-75
2023/04/16 01:05:06;;;;;;;11.03;9.30;;;;;;;;;;5018099;28;20208;-75
2023/04/16 01:07:32;;;;;;;12.07;9.97;;;;;;;;;;5015465;28;20293;-76
2023/04/16 01:09:59;;;;;;;11.43;9.50;;;;;;;;;;5020263;28;20183;-75
2023/04/16 01:12:25;;;;;;;12.93;10.80;;;;;;;;;;5036877;28;20261;-76
2023/04/16 01:14:52;;;;;;;14.47;10.80;;;;;;;;;;5035743;28;20225;-75
2023/04/16 01:17:18;;;;;;;12.33;10.53;;;;;;;;;;5033376;28;20206;-75
2023/04/16 01:19:44;;;;;;;13.87;11.73;;;;;;;;;;5035940;28;20645;-75
2023/04/16 01:22:10;;;;;;;12.50;10.27;;;;;;;;;;5024943;28;20210;-76
2023/04/16 01:24:37;;;;;;;15.53;11.20;;;;;;;;;;5027120;28;20266;-75
2023/04/16 01:27:03;;;;;;;13.47;10.90;;;;;;;;;;5020203;28;20659;-76
2023/04/16 01:29:29;;;;;;;13.20;11.23;;;;;;;;;;5028504;28;20278;-76
2023/04/16 01:31:57;;;;;;;14.60;11.63;;;;;;;;;;5012763;28;20218;-75
2023/04/16 01:34:35;;;;;;;14.60;11.70;;;;;;;;;;5012659;28;20191;-75
2023/04/16 01:37:02;;;;;;;15.13;11.20;;;;;;;;;;5012352;28;20219;-75
2023/04/16 01:39:29;;;;;;;14.60;12.10;;;;;;;;;;5013517;28;20179;-75
2023/04/16 01:41:56;;;;;;;12.90;10.57;;;;;;;;;;4996671;28;20245;-75
2023/04/16 01:44:22;;;;;;;12.27;10.50;;;;;;;;;;5017139;28;20649;-76
2023/04/16 01:46:48;;;;;;;14.70;11.67;;;;;;;;;;5012369;28;20226;-75
2023/04/16 01:49:15;;;;;;;14.63;11.53;;;;;;;;;;5014093;28;20180;-75
2023/04/16 01:51:41;;;;;;;15.87;12.13;;;;;;;;;;5045272;28;20332;-75
2023/04/16 01:54:07;;;;;;;14.20;10.80;;;;;;;;;;5011914;28;20179;-75
2023/04/16 01:56:34;;;;;;;14.10;11.97;;;;;;;;;;5013113;28;20302;-75
2023/04/16 01:59:00;;;;;;;15.60;12.53;;;;;;;;;;5017017;28;20224;-75
2023/04/16 02:01:32;;;;;;;14.47;11.80;;;;;;;;;;4998460;28;20175;-75
2023/04/16 02:03:58;;;;;;;14.57;11.73;;;;;;;;;;5011666;28;20233;-75
2023/04/16 02:06:24;;;;;;;15.00;11.43;;;;;;;;;;5024542;28;20187;-75
2023/04/16 02:08:50;;;;;;;14.83;11.13;;;;;;;;;;5013882;28;20575;-74
2023/04/16 02:11:16;;;;;;;13.80;11.37;;;;;;;;;;5026046;28;20290;-74
2023/04/16 02:13:43;;;;;;;16.87;11.50;;;;;;;;;;5013016;28;20187;-74
2023/04/16 02:16:09;;;;;;;14.27;11.43;;;;;;;;;;5008345;28;20761;-75
2023/04/16 02:18:46;;;;;;;15.80;11.33;;;;;;;;;;5030520;28;20321;-75
2023/04/16 02:21:14;;;;;;;14.73;11.60;;;;;;;;;;5031671;28;20554;-75
2023/04/16 02:23:41;;;;;;;12.17;10.10;;;;;;;;;;5031562;28;20684;-75
2023/04/16 02:26:07;;;;;;;13.87;10.77;;;;;;;;;;5030240;28;20647;-75
2023/04/16 02:28:33;;;;;;;16.07;11.93;;;;;;;;;;5030952;28;20555;-75
2023/04/16 02:30:59;;;;;;;12.57;10.27;;;;;;;;;;5031712;28;20241;-75
2023/04/16 02:33:28;;;;;;;15.57;11.70;;;;;;;;;;5016467;28;20188;-75
2023/04/16 02:35:59;;;;;;;15.07;11.53;;;;;;;;;;5011687;28;20199;-75
2023/04/16 02:38:25;;;;;;;13.40;10.90;;;;;;;;;;4995237;28;20289;-74
2023/04/16 02:40:51;;;;;;;13.07;9.90;;;;;;;;;;5011466;28;20175;-75
2023/04/16 02:43:17;;;;;;;14.13;10.33;;;;;;;;;;5010910;28;20286;-75
2023/04/16 02:45:44;;;;;;;12.53;10.53;;;;;;;;;;5011481;28;20245;-75
2023/04/16 02:48:10;;;;;;;13.73;11.07;;;;;;;;;;5012350;28;20793;-75
2023/04/16 02:50:36;;;;;;;13.23;10.20;;;;;;;;;;5012476;28;20214;-75
2023/04/16 02:53:03;;;;;;;14.10;11.17;;;;;;;;;;5010937;28;20183;-75
2023/04/16 02:55:29;;;;;;;12.60;9.77;;;;;;;;;;5011566;28;20234;-76
2023/04/16 02:57:55;;;;;;;15.83;11.23;;;;;;;;;;5010856;28;20253;-75
2023/04/16 03:00:22;;;;;;;14.53;11.03;;;;;;;;;;5011495;28;20286;-75
2023/04/16 03:02:48;;;;;;;15.23;12.07;;;;;;;;;;5010843;28;20672;-75
2023/04/16 03:05:14;;;;;;;14.30;10.60;;;;;;;;;;5021627;28;20547;-75
2023/04/16 03:07:40;;;;;;;13.33;11.53;;;;;;;;;;5010839;28;20315;-75
2023/04/16 03:10:07;;;;;;;14.37;11.80;;;;;;;;;;5012504;28;20182;-73
2023/04/16 03:12:33;;;;;;;15.17;11.10;;;;;;;;;;4981699;28;20647;-73
2023/04/16 03:14:59;;;;;;;15.13;11.00;;;;;;;;;;5026166;28;20183;-74
2023/04/16 03:17:25;;;;;;;14.93;11.40;;;;;;;;;;5026595;28;20199;-73
2023/04/16 03:19:52;;;;;;;12.43;10.17;;;;;;;;;;5012160;28;20175;-75
2023/04/16 03:22:19;;;;;;;12.83;10.47;;;;;;;;;;5010905;28;20693;-74
2023/04/16 03:24:45;;;;;;;14.67;11.53;;;;;;;;;;5023035;28;20182;-75
2023/04/16 03:27:11;;;;;;;14.20;11.53;;;;;;;;;;5023344;28;20207;-75
2023/04/16 03:29:38;;;;;;;13.33;11.30;;;;;;;;;;5010702;28;20191;-75
2023/04/16 03:32:06;;;;;;;13.07;10.47;;;;;;;;;;5010422;28;20187;-75
2023/04/16 03:34:32;;;;;;;14.33;10.60;;;;;;;;;;5017741;28;20241;-75
2023/04/16 03:36:59;;;;;;;14.27;10.53;;;;;;;;;;5011822;28;20298;-75
2023/04/16 03:39:25;;;;;;;15.30;10.53;;;;;;;;;;5010651;28;20717;-75
2023/04/16 03:41:51;;;;;;;14.17;11.37;;;;;;;;;;5010589;28;20184;-75
2023/04/16 03:44:18;;;;;;;12.87;10.43;;;;;;;;;;5010416;28;20179;-75
2023/04/16 03:46:45;;;;;;;14.57;11.53;;;;;;;;;;5010613;28;20203;-75
2023/04/16 03:49:11;;;;;;;15.47;12.07;;;;;;;;;;5010512;28;20256;-75
2023/04/16 03:51:37;;;;;;;12.40;10.27;;;;;;;;;;5012288;28;20187;-75
2023/04/16 03:54:03;;;;;;;13.63;10.77;;;;;;;;;;5024470;28;20179;-75
2023/04/16 03:56:31;;;;;;;13.87;11.07;;;;;;;;;;5011183;28;20290;-75
2023/04/16 03:58:57;;;;;;;15.60;12.00;;;;;;;;;;4990885;28;20202;-75
2023/04/16 04:01:23;;;;;;;13.97;11.13;;;;;;;;;;5010245;28;20266;-75
2023/04/16 04:03:50;;;;;;;13.17;11.00;;;;;;;;;;5009685;28;20179;-75
2023/04/16 04:06:16;;;;;;;14.50;11.00;;;;;;;;;;5009829;28;20195;-75
2023/04/16 04:08:42;;;;;;;16.77;12.07;;;;;;;;;;5009850;28;20647;-76
2023/04/16 04:11:09;;;;;;;16.07;12.37;;;;;;;;;;5010203;28;20206;-75
2023/04/16 04:13:37;;;;;;;14.27;11.00;;;;;;;;;;4992820;28;20234;-75
2023/04/16 04:16:04;;;;;;;15.93;11.03;;;;;;;;;;5042729;28;20589;-75
2023/04/16 04:18:32;;;;;;;13.53;11.03;;;;;;;;;;5009965;28;20206;-75
2023/04/16 04:20:59;;;;;;;14.97;11.30;;;;;;;;;;5042996;28;20179;-75
2023/04/16 04:23:28;;;;;;;14.00;11.70;;;;;;;;;;5021808;28;20172;-75
2023/04/16 04:25:54;;;;;;;15.33;11.50;;;;;;;;;;5039859;28;20187;-75
2023/04/16 04:28:20;;;;;;;12.27;9.87;;;;;;;;;;5010010;28;20310;-75
2023/04/16 04:30:47;;;;;;;13.93;11.73;;;;;;;;;;4992098;28;20182;-75
2023/04/16 04:33:13;;;;;;;14.97;11.40;;;;;;;;;;5008146;28;20214;-75
2023/04/16 04:35:39;;;;;;;14.10;11.30;;;;;;;;;;4993646;28;20207;-75
2023/04/16 04:38:07;;;;;;;14.30;10.80;;;;;;;;;;4991528;28;20278;-75
2023/04/16 04:40:34;;;;;;;13.83;11.10;;;;;;;;;;4980546;28;20183;-75
2023/04/16 04:43:00;;;;;;;15.23;11.90;;;;;;;;;;5009430;28;20512;-75
2023/04/16 04:45:26;;;;;;;13.93;11.30;;;;;;;;;;5009961;28;20218;-75
2023/04/16 04:47:53;;;;;;;15.20;11.93;;;;;;;;;;5009488;28;20214;-75
2023/04/16 04:50:20;;;;;;;14.47;10.93;;;;;;;;;;5009820;28;20190;-75
2023/04/16 04:52:47;;;;;;;15.70;12.17;;;;;;;;;;5009311;28;20655;-75
2023/04/16 04:55:14;;;;;;;15.10;11.70;;;;;;;;;;5009502;28;20180;-75
2023/04/16 04:57:41;;;;;;;14.87;11.53;;;;;;;;;;5009739;28;20210;-75
2023/04/16 05:00:08;;;;;;;14.23;10.60;;;;;;;;;;5005394;28;20723;-75
2023/04/16 05:02:41;;;;;;;16.03;11.33;;;;;;;;;;4978091;28;20175;-74
2023/04/16 05:05:07;;;;;;;12.70;10.17;;;;;;;;;;5013423;28;20206;-73
2023/04/16 05:07:34;;;;;;;16.20;12.07;;;;;;;;;;5014486;28;20237;-74
2023/04/16 05:10:00;;;;;;;15.50;11.43;;;;;;;;;;5014447;28;20218;-75
2023/04/16 05:12:26;;;;;;;16.60;11.50;;;;;;;;;;5012818;28;20238;-75
2023/04/16 05:14:52;;;;;;;15.77;12.07;;;;;;;;;;5026489;28;20210;-75
2023/04/16 05:17:18;;;;;;;14.50;11.67;;;;;;;;;;5019177;28;20214;-75
2023/04/16 05:19:44;;;;;;;14.23;10.67;;;;;;;;;;5012897;28;20560;-75
2023/04/16 05:22:11;;;;;;;17.27;11.97;;;;;;;;;;5014157;28;20544;-75
2023/04/16 05:24:37;;;;;;;14.83;12.03;;;;;;;;;;5012878;28;20187;-75
2023/04/16 05:27:03;;;;;;;16.40;11.40;;;;;;;;;;5013588;28;20210;-75
2023/04/16 05:29:29;;;;;;;16.93;12.10;;;;;;;;;;5014210;28;20198;-75
2023/04/16 05:31:56;;;;;;;15.63;12.40;;;;;;;;;;5014009;28;20278;-75
2023/04/16 05:34:22;;;;;;;16.57;12.57;;;;;;;;;;5013884;28;20187;-75
2023/04/16 05:36:48;;;;;;;15.70;12.03;;;;;;;;;;5013750;28;20235;-75
2023/04/16 05:39:16;;;;;;;13.23;11.20;;;;;;;;;;5014175;28;20912;-75
2023/04/16 05:41:42;;;;;;;15.40;11.83;;;;;;;;;;5010157;28;20272;-75
2023/04/16 05:44:08;;;;;;;15.60;11.57;;;;;;;;;;5012139;28;20187;-75
2023/04/16 05:46:34;;;;;;;16.70;11.07;;;;;;;;;;5012519;28;20528;-75
2023/04/16 05:49:00;;;;;;;14.20;11.00;;;;;;;;;;5045677;28;20182;-75
2023/04/16 05:51:26;;;;;;;16.87;12.43;;;;;;;;;;5013995;28;20325;-75
2023/04/16 05:53:52;;;;;;;19.60;15.63;;;;;;;;;;5013323;28;20202;-75
2023/04/16 05:56:19;;;;;;;16.03;14.10;;;;;;;;;;5012512;28;20253;-75
2023/04/16 05:58:45;;;;;;;16.07;13.03;;;;;;;;;;5013152;28;20613;-75
2023/04/16 06:01:11;;;;;;;15.07;12.40;;;;;;;;;;5013692;28;20172;-75
2023/04/16 06:03:38;;;;;;;15.57;12.17;;;;;;;;;;5013253;28;20534;-75
2023/04/16 06:06:04;;;;;;;15.37;12.23;;;;;;;;;;5013461;28;20185;-75
2023/04/16 06:08:30;;;;;;;16.60;12.10;;;;;;;;;;5012176;28;20206;-75
2023/04/16 06:10:56;;;;;;;15.00;12.13;;;;;;;;;;5011842;28;20183;-75
2023/04/16 06:13:22;;;;;;;14.90;12.50;;;;;;;;;;5009866;28;20651;-75
2023/04/16 06:15:48;;;;;;;15.23;11.97;;;;;;;;;;5012763;28;20207;-75
2023/04/16 06:18:15;;;;;;;14.33;11.50;;;;;;;;;;5013045;28;20195;-75
2023/04/16 06:20:41;;;;;;;13.67;10.80;;;;;;;;;;5013025;28;20195;-83
2023/04/16 06:23:07;;;;;;;14.60;11.90;;;;;;;;;;5011607;28;20179;-77
2023/04/16 06:25:33;;;;;;;15.27;12.00;;;;;;;;;;5021452;28;20179;-77
2023/04/16 06:27:59;;;;;;;15.63;11.70;;;;;;;;;;5032070;28;20608;-78
2023/04/16 06:30:25;;;;;;;16.27;12.17;;;;;;;;;;5013109;28;20234;-77
2023/04/16 06:32:52;;;;;;;13.67;12.13;;;;;;;;;;5012831;28;20183;-77
2023/04/16 06:35:19;;;;;;;14.07;11.27;;;;;;;;;;5011482;28;20854;-77
2023/04/16 06:37:45;;;;;;;14.60;12.23;;;;;;;;;;4995309;28;20203;-77
2023/04/16 06:40:12;;;;;;;14.47;11.60;;;;;;;;;;5011364;28;20190;-78
2023/04/16 06:42:38;;;;;;;15.27;11.70;;;;;;;;;;5012374;28;20191;-78
2023/04/16 06:45:04;;;;;;;13.43;10.87;;;;;;;;;;5012691;28;20164;-77
2023/04/16 06:47:30;;;;;;;13.57;10.77;;;;;;;;;;5013275;28;20199;-77
2023/04/16 06:49:56;;;;;;;13.17;11.07;;;;;;;;;;5011471;28;20274;-77
2023/04/16 06:52:23;;;;;;;15.17;11.40;;;;;;;;;;5011803;28;20190;-77
2023/04/16 06:54:49;;;;;;;17.60;12.17;;;;;;;;;;5011205;28;20221;-77
2023/04/16 06:57:15;;;;;;;15.27;11.50;;;;;;;;;;5027265;28;20203;-77
2023/04/16 06:59:41;;;;;;;14.37;11.80;;;;;;;;;;5010111;28;20199;-77
2023/04/16 07:02:09;;;;;;;14.23;10.83;;;;;;;;;;5010796;28;20222;-78
2023/04/16 07:04:35;;;;;;;17.23;12.57;;;;;;;;;;5012173;28;20175;-77
2023/04/16 07:07:01;;;;;;;14.97;12.17;;;;;;;;;;5010924;28;20280;-77
2023/04/16 07:09:27;;;;;;;14.27;11.40;;;;;;;;;;5012232;28;20183;-77
2023/04/16 07:11:54;;;;;;;16.83;12.73;;;;;;;;;;4979063;28;20554;-80
2023/04/16 07:14:20;;;;;;;16.67;12.07;;;;;;;;;;5012115;28;20214;-80
2023/04/16 07:16:46;;;;;;;17.43;12.57;;;;;;;;;;5013852;28;20222;-77
2023/04/16 07:19:12;;;;;;;17.67;12.90;;;;;;;;;;4988508;28;20530;-78
2023/04/16 07:21:40;;;;;;;15.47;12.17;;;;;;;;;;5012893;28;20175;-80
2023/04/16 07:24:06;;;;;;;15.60;12.30;;;;;;;;;;5006803;28;20186;-77
2023/04/16 07:26:33;;;;;;;20.67;14.23;;;;;;;;;;5025078;28;20274;-78
2023/04/16 07:28:59;;;;;;;20.23;13.80;;;;;;;;;;5006124;28;20210;-78
2023/04/16 07:31:25;;;;;;;19.20;13.03;;;;;;;;;;5010738;28;20277;-78
2023/04/16 07:33:51;;;;;;;19.67;13.67;;;;;;;;;;5016210;28;20558;-78
2023/04/16 07:36:17;;;;;;;18.93;14.00;;;;;;;;;;5022997;28;20195;-77
2023/04/16 07:38:43;;;;;;;19.57;14.00;;;;;;;;;;5012055;28;20567;-77
2023/04/16 07:41:09;;;;;;;19.17;13.47;;;;;;;;;;4994373;28;20183;-78
2023/04/16 07:43:35;;;;;;;20.30;14.47;;;;;;;;;;5052618;28;20194;-79
2023/04/16 07:46:01;;;;;;;19.03;14.30;;;;;;;;;;5012308;28;20245;-79
2023/04/16 07:48:28;;;;;;;20.87;14.40;;;;;;;;;;5032377;28;20217;-79
2023/04/16 07:50:54;;;;;;;20.97;14.90;;;;;;;;;;5017210;28;20187;-79
2023/04/16 07:53:20;;;;;;;22.17;14.73;;;;;;;;;;5017866;28;20175;-80
2023/04/16 07:55:46;;;;;;;21.60;15.17;;;;;;;;;;5014350;28;20218;-80
2023/04/16 07:58:12;;;;;;;24.67;16.73;;;;;;;;;;5003029;28;20260;-79
2023/04/16 08:00:39;;;;;;;24.77;16.60;;;;;;;;;;5013706;28;20202;-79
2023/04/16 08:03:05;;;;;;;23.87;16.40;;;;;;;;;;5011913;28;20191;-80
2023/04/16 08:05:31;;;;;;;22.90;16.50;;;;;;;;;;4983187;28;20183;-79
2023/04/16 08:07:58;;;;;;;26.43;17.10;;;;;;;;;;5012191;28;20283;-79
2023/04/16 08:10:24;;;;;;;28.23;18.67;;;;;;;;;;5050106;28;20558;-79
2023/04/16 08:12:50;;;;;;;24.80;17.30;;;;;;;;;;5018702;28;20215;-79
2023/04/16 08:15:16;;;;;;;27.83;17.60;;;;;;;;;;4995560;28;20688;-79
2023/04/16 08:17:42;;;;;;;24.70;15.97;;;;;;;;;;5012450;28;20284;-80
2023/04/16 08:20:08;;;;;;;24.33;17.27;;;;;;;;;;5018659;28;20684;-80
2023/04/16 08:22:35;;;;;;;28.83;19.10;;;;;;;;;;5023889;28;20273;-79
2023/04/16 08:25:02;;;;;;;24.27;16.73;;;;;;;;;;5011982;28;20183;-79
2023/04/16 08:27:28;;;;;;;25.30;17.73;;;;;;;;;;5004465;28;20207;-79
2023/04/16 08:29:54;;;;;;;23.83;17.43;;;;;;;;;;5008956;28;20179;-81
2023/04/16 08:32:21;;;;;;;24.33;17.70;;;;;;;;;;5009352;28;20281;-81
2023/04/16 08:34:47;;;;;;;25.70;17.47;;;;;;;;;;5009084;28;20187;-79
2023/04/16 08:37:13;;;;;;;24.50;17.53;;;;;;;;;;5008052;28;20302;-79
2023/04/16 08:39:40;;;;;;;26.07;17.93;;;;;;;;;;5006549;28;20206;-80
2023/04/16 08:42:09;;;;;;;23.50;16.30;;;;;;;;;;5015163;28;20721;-85
2023/04/16 08:44:37;;;;;;;24.17;16.40;;;;;;;;;;5032996;28;20163;-80
2023/04/16 08:47:06;;;;;;;21.77;14.90;;;;;;;;;;5037301;28;20214;-80
2023/04/16 08:49:35;;;;;;;19.97;14.00;;;;;;;;;;5016065;28;20194;-80
2023/04/16 08:52:06;;;;;;;23.27;15.60;;;;;;;;;;5024295;28;20641;-80
2023/04/16 08:54:52;;;;;;;22.80;15.80;;;;;;;;;;5017646;28;20721;-80
2023/04/16 08:57:19;;;;;;;18.57;14.03;;;;;;;;;;5014878;28;20346;-80
2023/04/16 08:59:46;;;;;;;19.43;13.80;;;;;;;;;;5016506;28;20187;-81
2023/04/16 09:02:13;;;;;;;19.17;14.47;;;;;;;;;;5013657;28;20221;-80
2023/04/16 09:04:39;;;;;;;21.20;14.33;;;;;;;;;;5016834;28;20205;-80
2023/04/16 09:07:06;;;;;;;19.77;14.10;;;;;;;;;;5004815;28;20225;-80
2023/04/16 09:09:32;;;;;;;21.47;15.13;;;;;;;;;;5017821;28;20677;-80
2023/04/16 09:11:59;;;;;;;19.97;14.60;;;;;;;;;;5024902;28;20187;-76
2023/04/16 09:14:25;;;;;;;22.17;15.10;;;;;;;;;;5055207;28;20721;-79
2023/04/16 09:16:54;;;;;;;18.07;13.37;;;;;;;;;;5020763;28;20226;-80
2023/04/16 09:19:20;;;;;;;20.27;13.77;;;;;;;;;;5025080;28;20213;-80
2023/04/16 09:21:47;;;;;;;20.00;14.00;;;;;;;;;;5019465;28;20186;-79
2023/04/16 09:24:13;;;;;;;22.90;15.60;;;;;;;;;;5012016;28;20183;-78
2023/04/16 09:26:42;;;;;;;21.83;14.70;;;;;;;;;;5013128;28;20183;-78
2023/04/16 09:29:08;;;;;;;21.00;14.97;;;;;;;;;;5013959;28;20698;-78
2023/04/16 09:31:34;;;;;;;20.60;14.90;;;;;;;;;;5014078;28;20675;-79
2023/04/16 09:34:02;;;;;;;21.07;14.80;;;;;;;;;;5014954;28;20555;-78
2023/04/16 09:36:28;;;;;;;19.70;14.27;;;;;;;;;;5013999;28;20209;-78
2023/04/16 09:38:54;;;;;;;20.50;13.87;;;;;;;;;;5014157;28;20191;-79
2023/04/16 09:41:26;;;;;;;21.10;14.70;;;;;;;;;;5012527;28;20180;-79
2023/04/16 09:43:59;;;;;;;20.27;15.20;;;;;;;;;;5012171;28;20747;-78
2023/04/16 09:46:33;;;;;;;20.70;14.90;;;;;;;;;;5010877;28;20187;-78
2023/04/16 09:49:04;;;;;;;19.40;14.37;;;;;;;;;;5012877;28;20195;-78
2023/04/16 09:51:36;;;;;;;22.93;15.73;;;;;;;;;;5013550;28;20171;-79
2023/04/16 09:54:03;;;;;;;21.40;14.67;;;;;;;;;;5045469;28;20595;-78
2023/04/16 09:56:30;;;;;;;20.23;14.73;;;;;;;;;;5011116;28;20203;-78
2023/04/16 09:58:57;;;;;;;20.90;14.80;;;;;;;;;;5016779;28;20174;-78
2023/04/16 10:01:24;;;;;;;22.40;15.07;;;;;;;;;;5014893;28;20262;-79
2023/04/16 10:03:52;;;;;;;21.83;14.77;;;;;;;;;;4996310;28;20187;-78
2023/04/16 10:06:19;;;;;;;22.37;15.67;;;;;;;;;;5012018;28;20191;-78
2023/04/16 10:08:49;;;;;;;19.33;14.30;;;;;;;;;;5015197;28;20270;-78
2023/04/16 10:11:16;;;;;;;20.67;14.73;;;;;;;;;;5015152;28;20275;-79
2023/04/16 10:13:42;;;;;;;21.03;14.53;;;;;;;;;;5006398;28;20237;-78
2023/04/16 10:16:09;;;;;;;21.80;14.30;;;;;;;;;;5020497;28;20333;-77
2023/04/16 10:18:36;;;;;;;21.60;15.33;;;;;;;;;;5011179;28;20203;-79
2023/04/16 10:21:02;;;;;;;22.10;15.47;;;;;;;;;;5009227;28;20184;-79
2023/04/16 10:23:29;;;;;;;21.77;14.23;;;;;;;;;;5012254;28;20183;-79
2023/04/16 10:25:55;;;;;;;19.83;13.47;;;;;;;;;;5018035;28;20237;-79
2023/04/16 10:28:22;;;;;;;21.10;15.10;;;;;;;;;;5027220;28;20240;-78
2023/04/16 10:30:52;;;;;;;21.00;14.40;;;;;;;;;;5004943;28;20542;-77
2023/04/16 10:33:22;;;;;;;17.20;12.97;;;;;;;;;;5045037;28;20190;-78
2023/04/16 10:35:49;;;;;;;21.47;14.70;;;;;;;;;;5009491;28;20584;-79
2023/04/16 10:38:25;;;;;;;19.50;14.50;;;;;;;;;;5008740;28;20218;-74
2023/04/16 10:40:59;;;;;;;20.83;14.07;;;;;;;;;;5021460;28;20182;-75
2023/04/16 10:43:25;;;;;;;21.50;14.63;;;;;;;;;;5015308;28;20176;-75
2023/04/16 10:45:54;;;;;;;16.70;12.47;;;;;;;;;;5010631;28;20179;-75
2023/04/16 10:48:20;;;;;;;18.87;14.33;;;;;;;;;;5011007;28;20570;-75
2023/04/16 10:50:59;;;;;;;18.40;13.90;;;;;;;;;;5010425;28;20215;-75
2023/04/16 10:53:26;;;;;;;21.40;14.17;;;;;;;;;;5011366;28;20199;-75
2023/04/16 10:55:56;;;;;;;21.43;14.40;;;;;;;;;;5012273;28;20207;-75
2023/04/16 10:58:29;;;;;;;19.47;14.17;;;;;;;;;;5011001;28;20203;-75
2023/04/16 11:00:59;;;;;;;19.80;14.83;;;;;;;;;;5012581;28;20651;-75
2023/04/16 11:03:25;;;;;;;20.47;14.77;;;;;;;;;;5012067;28;20732;-76
2023/04/16 11:05:51;;;;;;;18.67;13.97;;;;;;;;;;5014189;28;20589;-76
2023/04/16 11:08:17;;;;;;;17.83;13.73;;;;;;;;;;5009463;28;20214;-75
2023/04/16 11:10:44;;;;;;;17.83;13.30;;;;;;;;;;5010196;28;20197;-75
2023/04/16 11:13:12;;;;;;;19.63;14.87;;;;;;;;;;5025440;28;20183;-75
2023/04/16 11:15:38;;;;;;;19.80;14.47;;;;;;;;;;5012794;28;20261;-75
2023/04/16 11:18:05;;;;;;;18.40;13.33;;;;;;;;;;5012613;28;20206;-75
2023/04/16 11:20:32;;;;;;;19.20;14.63;;;;;;;;;;5010968;28;20647;-75
2023/04/16 11:22:58;;;;;;;19.77;14.53;;;;;;;;;;5011985;28;20177;-76
2023/04/16 11:25:25;;;;;;;17.23;14.33;;;;;;;;;;5015382;28;20333;-77
2023/04/16 11:27:51;;;;;;;18.10;13.90;;;;;;;;;;5027203;28;20203;-75
2023/04/16 11:30:18;;;;;;;17.97;14.03;;;;;;;;;;5044277;28;20328;-75
2023/04/16 11:32:44;;;;;;;19.00;14.27;;;;;;;;;;5011659;28;20229;-76
2023/04/16 11:35:15;;;;;;;19.03;15.03;;;;;;;;;;5011143;28;20187;-76
2023/04/16 11:37:42;;;;;;;20.67;14.63;;;;;;;;;;5019506;28;20248;-75
2023/04/16 11:40:09;;;;;;;18.10;13.63;;;;;;;;;;5029933;28;20566;-76
2023/04/16 11:42:36;;;;;;;20.27;14.77;;;;;;;;;;5018305;28;20266;-75
2023/04/16 11:45:02;;;;;;;18.23;14.00;;;;;;;;;;5011945;28;20194;-75
2023/04/16 11:47:30;;;;;;;18.83;14.40;;;;;;;;;;5011792;28;20286;-76
2023/04/16 11:49:57;;;;;;;19.27;15.00;;;;;;;;;;5006569;28;20539;-75
2023/04/16 11:52:31;;;;;;;17.23;13.73;;;;;;;;;;5011496;28;20186;-79
2023/04/16 11:54:57;;;;;;;19.87;15.30;;;;;;;;;;5027522;28;20197;-75
2023/04/16 11:57:28;;;;;;;19.23;14.93;;;;;;;;;;5042248;28;20206;-76
2023/04/16 11:59:55;;;;;;;18.70;14.60;;;;;;;;;;5010974;28;20191;-76
2023/04/16 12:02:40;;;;;;;20.57;15.60;;;;;;;;;;5011263;28;20210;-77
2023/04/16 12:05:29;;;;;;;22.40;16.83;;;;;;;;;;5023661;28;20672;-74
2023/04/16 12:07:55;;;;;;;20.23;15.40;;;;;;;;;;5032537;28;20266;-76
2023/04/16 12:10:21;;;;;;;19.47;14.50;;;;;;;;;;5028048;28;20241;-77
2023/04/16 12:12:47;;;;;;;20.57;14.43;;;;;;;;;;5022659;28;20279;-73
2023/04/16 12:15:14;;;;;;;19.83;14.37;;;;;;;;;;5014124;28;20183;-76
2023/04/16 12:17:40;;;;;;;19.23;14.87;;;;;;;;;;5009558;28;20221;-74
2023/04/16 12:20:10;;;;;;;17.53;14.13;;;;;;;;;;5016235;28;20661;-79
2023/04/16 12:22:37;;;;;;;19.60;15.33;;;;;;;;;;5011407;28;20969;-75
2023/04/16 12:25:13;;;;;;;19.30;16.03;;;;;;;;;;5010704;28;20639;-74
2023/04/16 12:27:42;;;;;;;21.03;16.17;;;;;;;;;;5012900;28;20282;-73
2023/04/16 12:30:08;;;;;;;21.23;15.50;;;;;;;;;;5006985;28;20725;-74
2023/04/16 12:32:34;;;;;;;18.02;15.77;;;;;;;;;;5010647;28;20430;-74
2023/04/16 12:35:01;;;;;;;20.80;16.60;;;;;;;;;;5010737;28;20642;-74
2023/04/16 12:37:27;;;;;;;21.70;17.07;;;;;;;;;;5009407;28;20302;-73
2023/04/16 12:39:53;;;;;;;23.03;17.23;;;;;;;;;;5007843;28;20183;-73
2023/04/16 12:42:20;;;;;;;23.07;17.30;;;;;;;;;;5010778;28;20180;-73
2023/04/16 12:44:46;;;;;;;23.33;17.53;;;;;;;;;;5010733;28;21899;-73
2023/04/16 12:47:12;;;;;;;23.90;16.17;;;;;;;;;;5010848;28;20206;-73
2023/04/16 12:49:38;;;;;;;22.17;16.60;;;;;;;;;;5005699;28;20191;-73
2023/04/16 12:52:05;;;;;;;22.37;16.67;;;;;;;;;;5010724;28;20179;-73
2023/04/16 12:54:31;;;;;;;21.33;17.63;;;;;;;;;;5042485;28;20180;-73
2023/04/16 12:56:57;;;;;;;25.77;19.10;;;;;;;;;;5011615;28;20214;-74
2023/04/16 12:59:24;;;;;;;26.50;18.70;;;;;;;;;;5009539;28;20230;-73
2023/04/16 13:01:50;;;;;;;23.90;18.17;;;;;;;;;;4993613;28;20262;-74
2023/04/16 13:04:17;;;;;;;23.73;17.87;;;;;;;;;;5009490;28;20182;-72
2023/04/16 13:06:44;;;;;;;24.30;18.23;;;;;;;;;;5009211;28;20254;-75
2023/04/16 13:09:11;;;;;;;25.27;19.63;;;;;;;;;;5010800;28;20175;-74
2023/04/16 13:11:37;;;;;;;23.93;18.73;;;;;;;;;;5026018;28;21292;-74
2023/04/16 13:14:03;;;;;;;23.53;17.97;;;;;;;;;;5005915;28;20278;-73
2023/04/16 13:16:29;;;;;;;21.53;17.20;;;;;;;;;;5010238;28;20629;-73
2023/04/16 13:18:55;;;;;;;24.23;18.33;;;;;;;;;;5023863;28;20191;-73
2023/04/16 13:21:22;;;;;;;23.87;18.47;;;;;;;;;;5009746;28;20175;-74
2023/04/16 13:23:48;;;;;;;23.13;17.77;;;;;;;;;;5009798;28;20202;-74
2023/04/16 13:26:15;;;;;;;25.03;18.70;;;;;;;;;;5013853;28;20211;-75
2023/04/16 13:28:41;;;;;;;26.30;19.03;;;;;;;;;;5013346;28;20203;-74
2023/04/16 13:31:07;;;;;;;28.30;20.53;;;;;;;;;;5027074;28;20710;-73
2023/04/16 13:33:33;;;;;;;25.63;19.10;;;;;;;;;;5012863;28;20217;-74
2023/04/16 13:36:00;;;;;;;25.10;19.13;;;;;;;;;;5013270;28;20206;-73
2023/04/16 13:38:26;;;;;;;25.20;18.97;;;;;;;;;;5009853;28;20590;-73
2023/04/16 13:40:52;;;;;;;25.80;18.83;;;;;;;;;;5010282;28;20675;-73
2023/04/16 13:43:18;;;;;;;27.07;19.83;;;;;;;;;;5012202;28;20183;-74
2023/04/16 13:45:45;;;;;;;24.97;17.53;;;;;;;;;;5005710;28;20191;-74
2023/04/16 13:48:11;;;;;;;27.23;19.90;;;;;;;;;;5009720;28;20202;-75
2023/04/16 13:50:37;;;;;;;25.03;18.90;;;;;;;;;;5011176;28;20218;-74
2023/04/16 13:53:03;;;;;;;24.27;18.90;;;;;;;;;;5010259;28;20213;-74
2023/04/16 13:55:31;;;;;;;26.97;19.37;;;;;;;;;;5009334;28;20219;-73
2023/04/16 13:57:57;;;;;;;26.47;19.27;;;;;;;;;;5011512;28;20211;-74
2023/04/16 14:00:23;;;;;;;24.10;19.27;;;;;;;;;;5012214;28;20175;-76
2023/04/16 14:02:49;;;;;;;25.33;18.30;;;;;;;;;;5011368;28;20211;-76
2023/04/16 14:05:15;;;;;;;27.07;20.17;;;;;;;;;;5009226;28;20180;-78
2023/04/16 14:07:41;;;;;;;25.63;18.93;;;;;;;;;;5003524;28;20296;-79
2023/04/16 14:10:08;;;;;;;28.30;20.40;;;;;;;;;;5006924;28;20191;-75
2023/04/16 14:12:35;;;;;;;28.17;19.27;;;;;;;;;;5009994;28;20183;-75
2023/04/16 14:15:03;;;;;;;24.83;18.67;;;;;;;;;;5010164;28;20206;-75
2023/04/16 14:17:29;;;;;;;30.97;21.23;;;;;;;;;;5009753;28;20238;-75